Bremen, KS (66412)

8:10 AM CST on February 14, 2016 (GMT -0600)
N0NB | | Change Station
CLOSE
Current Station
Personal Weather Station
Location: Bremen, KS
Elevation: 1318 ft
Nearby Weather Stations

Elev 1318 ft 39.91 °N, 96.77 °W | Updated 21 seconds ago

Clear
Clear
21.3 °F
Feels Like 11 °F
N
9.0
Wind Variable Wind from SW
Gusts 9.0 mph

Today
High -- | Low -- °F
--% Chance of Precip.
Yesterday
High -- | Low -- °F
Precip. -- in
Pressure 29.93 in
Visibility 10.0 miles
Clouds Clear
Windchill 11 °F
Dew Point 13 °F
Humidity 69%
Rainfall 0.00 in
Snow Depth Not available.
7:21 AM 6:01 PM
Waxing Crescent, 42% visible
METAR KBIE 141355Z AUTO 20009KT 10SM CLR M07/M13 A2993 RMK AO2 T10701126
Pressure 29.93 in
Visibility 10.0 miles
Clouds Clear
Windchill 11 °F
Dew Point 13 °F
Humidity 69%
Rainfall 0.00 in
Snow Depth Not available.
7:21 AM 6:01 PM
Waxing Crescent, 42% visible
METAR KBIE 141355Z AUTO 20009KT 10SM CLR M07/M13 A2993 RMK AO2 T10701126

10-Day Weather Forecast

Almanac

Astronomy

Feb. 14, 2016 Rise Set
Actual Time
Civil Twilight
Nautical Twilight
Astronomical Twilight
Moon
Length of Visible Light
Length of Day
Tomorrow will be .
, % of the Moon is Illuminated

Today's Extremes

State Highs State Lows

Community

WunderPhotos

Upload Photos

1,892,797 photos uploaded!

WunderBlog® & News

Nearby

Air Quality

  Air Quality AQ Index Pollutant
Not available.

Snow Depth

Station Depth Elevation

Earthquake Activity

City Distance Mag. Time & Date
Minimum magnitude displayed is 2.5.

Coastal Water Temperatures

Place Temperature

Stations

Nearby Weather Stations

Station Location Temp. Windchill Dew Point Humidity Wind Precip. Elev Updated Type
                   

Watches & Warnings

There are currently no watches in effect.